Time;durP1;ratioP1;P1;durP2;ratioP2;P2;SDS_P1;SDS_P2;PMS_P1;PMS_P2;Temp;Humidity;BMP_temperature;BMP_pressure;BME280_temperature;BME280_humidity;BME280_pressure;Samples;Min_cycle;Max_cycle;Signal;HPM_P1;HPM_P2
2023/09/18 00:01:09;;;;;;;2.40;2.03;;;17.60;99.90;17.50;100367.00;;;;4996191;28;108464;-66
2023/09/18 00:03:35;;;;;;;3.28;2.28;;;17.40;99.90;17.50;100365.00;;;;4993608;27;93519;-65
2023/09/18 00:06:01;;;;;;;3.17;1.83;;;17.40;99.90;17.50;100363.00;;;;4991361;28;112882;-65
2023/09/18 00:08:27;;;;;;;2.30;1.77;;;17.40;99.90;17.50;100367.00;;;;4991275;28;108750;-65
2023/09/18 00:11:12;;;;;;;1.58;1.45;;;17.40;99.90;17.50;100363.00;;;;4992851;27;100317;-65
2023/09/18 00:13:38;;;;;;;2.67;2.08;;;17.40;99.90;17.50;100355.00;;;;4996317;28;93102;-65
2023/09/18 00:16:04;;;;;;;2.75;1.90;;;17.40;99.90;17.50;100354.00;;;;4973854;28;100229;-66
2023/09/18 00:18:29;;;;;;;2.45;1.52;;;17.40;99.90;17.50;100348.00;;;;4988649;27;110259;-65
2023/09/18 00:20:55;;;;;;;2.38;2.10;;;17.40;99.90;17.50;100354.00;;;;4996440;27;107619;-65
2023/09/18 00:23:24;;;;;;;1.98;1.83;;;17.40;99.90;17.50;100345.00;;;;4973624;28;123215;-66
2023/09/18 00:25:50;;;;;;;2.22;2.00;;;17.40;99.90;17.50;100348.00;;;;4996412;28;94009;-65
2023/09/18 00:28:15;;;;;;;3.95;2.55;;;17.40;99.90;17.40;100348.00;;;;4989918;27;93213;-66
2023/09/18 00:30:49;;;;;;;1.92;1.67;;;17.40;99.90;17.40;100344.00;;;;4991360;27;97954;-65
2023/09/18 00:33:15;;;;;;;2.42;1.90;;;17.30;99.90;17.40;100331.00;;;;4993834;27;95510;-66
2023/09/18 00:35:46;;;;;;;2.53;1.88;;;17.50;99.90;17.40;100332.00;;;;4992557;27;93732;-66
2023/09/18 00:38:12;;;;;;;3.50;2.33;;;17.30;99.90;17.40;100320.00;;;;4993345;27;92661;-66
2023/09/18 00:40:38;;;;;;;2.92;2.08;;;17.30;99.90;17.40;100322.00;;;;4995015;28;92889;-65
2023/09/18 00:43:03;;;;;;;2.40;2.20;;;17.30;99.90;17.30;100320.00;;;;4976445;28;122717;-65
2023/09/18 00:45:29;;;;;;;2.63;2.17;;;17.30;99.90;17.30;100321.00;;;;4992828;28;121462;-66
2023/09/18 00:47:55;;;;;;;1.85;1.50;;;17.30;99.90;17.30;100308.00;;;;4976781;28;93284;-66
2023/09/18 00:50:21;;;;;;;1.75;1.23;;;17.20;99.90;17.30;100314.00;;;;4973477;28;108151;-66
2023/09/18 00:52:48;;;;;;;1.60;1.50;;;17.20;99.90;17.30;100314.00;;;;4993408;27;92716;-66
2023/09/18 00:55:14;;;;;;;2.40;2.20;;;17.20;99.90;17.30;100306.00;;;;4990706;27;121874;-66
2023/09/18 00:57:42;;;;;;;2.50;2.30;;;17.20;99.90;17.20;100303.00;;;;4988850;27;92977;-66
2023/09/18 01:00:08;;;;;;;1.83;1.50;;;17.20;99.90;17.20;100299.00;;;;4981227;28;92192;-68
2023/09/18 01:02:34;;;;;;;1.42;1.33;;;17.10;99.90;17.20;100306.00;;;;4981974;27;93043;-65
2023/09/18 01:05:01;;;;;;;4.75;1.92;;;17.10;99.90;17.20;100298.00;;;;4991049;27;121442;-65
2023/09/18 01:07:28;;;;;;;6.03;2.60;;;17.10;99.90;17.10;100294.00;;;;4992142;27;94049;-65
2023/09/18 01:09:54;;;;;;;1.60;1.50;;;17.10;99.90;17.10;100297.00;;;;4991221;27;92996;-66
2023/09/18 01:12:40;;;;;;;2.97;2.03;;;17.00;99.90;17.00;100300.00;;;;4976930;28;92712;-65
2023/09/18 01:15:51;;;;;;;2.25;1.92;;;17.00;99.90;17.00;100291.00;;;;4992164;27;105459;-65
2023/09/18 01:18:18;;;;;;;3.40;2.60;;;17.00;99.90;17.00;100294.00;;;;4974132;28;92786;-65
2023/09/18 01:20:44;;;;;;;3.25;2.38;;;16.90;99.90;17.00;100282.00;;;;4992897;28;93396;-66
2023/09/18 01:23:11;;;;;;;2.30;2.10;;;17.00;99.90;16.90;100281.00;;;;4994998;27;92925;-66
2023/09/18 01:25:37;;;;;;;2.20;1.98;;;16.90;99.90;16.90;100270.00;;;;4993580;28;93546;-65
2023/09/18 01:28:03;;;;;;;1.83;1.58;;;16.80;99.90;16.90;100269.00;;;;4992122;28;92868;-65
2023/09/18 01:30:29;;;;;;;3.50;2.28;;;16.80;99.90;16.80;100267.00;;;;4999138;27;92893;-65
2023/09/18 01:32:57;;;;;;;2.75;2.15;;;16.80;99.90;16.80;100266.00;;;;4995312;28;103644;-65
2023/09/18 01:35:29;;;;;;;2.38;1.92;;;16.80;99.90;16.80;100272.00;;;;5000443;28;113741;-65
2023/09/18 01:37:57;;;;;;;2.20;1.98;;;16.90;99.90;16.80;100270.00;;;;4978904;27;93347;-66
2023/09/18 01:40:24;;;;;;;3.53;2.67;;;16.70;99.90;16.70;100261.00;;;;4977469;28;92816;-65
2023/09/18 01:42:50;;;;;;;6.22;2.13;;;16.70;99.90;16.70;100259.00;;;;4998978;27;94141;-65
2023/09/18 01:45:16;;;;;;;2.85;2.40;;;16.60;99.90;16.60;100262.00;;;;4994868;28;122524;-65
2023/09/18 01:47:41;;;;;;;3.15;2.85;;;16.60;99.90;16.60;100250.00;;;;4977699;28;110041;-65
2023/09/18 01:50:07;;;;;;;1.60;1.50;;;16.70;99.90;16.60;100251.00;;;;4997887;28;108369;-65
2023/09/18 01:52:36;;;;;;;2.22;1.98;;;16.50;99.90;16.60;100252.00;;;;4995966;28;104505;-66
2023/09/18 01:55:05;;;;;;;4.70;2.75;;;16.50;99.90;16.50;100251.00;;;;4995038;27;93302;-66
2023/09/18 01:57:31;;;;;;;2.50;2.30;;;16.40;99.90;16.50;100257.00;;;;4991390;27;93808;-66
2023/09/18 01:59:57;;;;;;;2.03;1.85;;;16.50;99.90;16.50;100249.00;;;;4993399;27;93835;-66
2023/09/18 02:02:23;;;;;;;1.75;1.65;;;16.40;99.90;16.50;100247.00;;;;4995371;27;123094;-66
2023/09/18 02:04:49;;;;;;;2.50;2.15;;;16.40;99.90;16.40;100243.00;;;;4998666;27;93642;-66
2023/09/18 02:07:15;;;;;;;2.38;2.17;;;16.40;99.90;16.40;100243.00;;;;4997795;27;109570;-66
2023/09/18 02:09:41;;;;;;;3.03;2.22;;;16.30;99.90;16.40;100233.00;;;;4997345;27;93129;-65
2023/09/18 02:12:07;;;;;;;3.05;2.28;;;16.30;99.90;16.30;100235.00;;;;4996326;28;122715;-65
2023/09/18 02:14:33;;;;;;;2.05;1.70;;;16.30;99.90;16.30;100240.00;;;;4996625;28;93236;-65
2023/09/18 02:16:59;;;;;;;2.40;1.88;;;16.20;99.90;16.30;100230.00;;;;4998055;28;92754;-66
2023/09/18 02:19:26;;;;;;;1.67;1.58;;;16.20;99.90;16.30;100225.00;;;;4997159;27;92905;-66
2023/09/18 02:21:52;;;;;;;2.47;1.98;;;16.60;99.90;16.20;100224.00;;;;4994622;28;93780;-65
2023/09/18 02:24:17;;;;;;;3.08;2.38;;;16.20;99.90;16.20;100226.00;;;;4994701;27;109948;-65
2023/09/18 02:26:45;;;;;;;3.30;3.00;;;16.00;99.90;16.20;100218.00;;;;4997274;28;103865;-65
2023/09/18 02:29:11;;;;;;;2.35;1.92;;;16.10;99.90;16.20;100220.00;;;;4992396;28;92929;-65
2023/09/18 02:31:37;;;;;;;2.50;2.30;;;16.10;99.90;16.10;100212.00;;;;4994886;27;94203;-65
2023/09/18 02:34:03;;;;;;;3.13;2.92;;;16.00;99.90;16.10;100212.00;;;;4998706;28;93738;-65
2023/09/18 02:36:29;;;;;;;2.63;2.13;;;16.00;99.90;16.10;100214.00;;;;4997109;27;100315;-65
2023/09/18 02:38:55;;;;;;;2.28;2.05;;;16.00;99.90;16.00;100197.00;;;;4991529;28;108871;-65
2023/09/18 02:41:20;;;;;;;2.83;2.10;;;16.00;99.90;16.00;100194.00;;;;4994014;27;94096;-65
2023/09/18 02:43:46;;;;;;;4.25;2.08;;;15.90;99.90;15.90;100198.00;;;;4995099;28;122418;-65
2023/09/18 02:46:12;;;;;;;2.78;1.90;;;15.90;99.90;15.90;100190.00;;;;4993997;27;94140;-65
2023/09/18 02:48:37;;;;;;;1.98;1.88;;;15.90;99.90;15.90;100199.00;;;;4996874;27;94801;-65
2023/09/18 02:51:03;;;;;;;2.75;2.13;;;15.90;99.90;15.90;100189.00;;;;4998746;27;93820;-65
2023/09/18 02:53:29;;;;;;;2.35;2.03;;;15.80;99.90;15.90;100183.00;;;;4990464;27;122999;-65
2023/09/18 02:55:57;;;;;;;3.28;2.45;;;15.80;99.90;15.90;100183.00;;;;4995401;27;92363;-65
2023/09/18 02:58:25;;;;;;;2.80;2.38;;;15.80;99.90;15.80;100174.00;;;;4993355;27;95017;-65
2023/09/18 03:00:57;;;;;;;2.92;2.67;;;15.70;99.90;15.80;100172.00;;;;4994295;27;93756;-66
2023/09/18 03:03:22;;;;;;;3.05;2.50;;;15.70;99.90;15.80;100171.00;;;;4995929;27;93702;-65
2023/09/18 03:05:48;;;;;;;3.40;2.55;;;15.70;99.90;15.80;100168.00;;;;4999603;27;92914;-65
2023/09/18 03:08:16;;;;;;;2.22;2.03;;;15.80;99.90;15.80;100175.00;;;;4995471;27;92621;-65
2023/09/18 03:10:42;;;;;;;3.03;2.72;;;15.70;99.90;15.80;100161.00;;;;4977292;28;94140;-66
2023/09/18 03:13:14;;;;;;;3.63;3.22;;;15.70;99.90;15.80;100172.00;;;;4991844;28;94599;-66
2023/09/18 03:15:40;;;;;;;3.70;3.13;;;15.80;99.90;15.80;100175.00;;;;4995042;27;93466;-66
2023/09/18 03:18:07;;;;;;;3.28;2.28;;;15.70;99.90;15.80;100164.00;;;;4980140;28;92972;-66
2023/09/18 03:20:33;;;;;;;4.18;2.88;;;15.70;99.90;15.80;100164.00;;;;4994577;27;94307;-66
2023/09/18 03:23:01;;;;;;;2.30;2.10;;;15.70;99.90;15.80;100165.00;;;;4997180;28;120198;-66
2023/09/18 03:25:27;;;;;;;3.10;2.67;;;15.70;99.90;15.80;100168.00;;;;4981831;27;93133;-66
2023/09/18 03:27:55;;;;;;;3.10;2.20;;;15.70;99.90;15.80;100167.00;;;;4972913;28;97603;-66
2023/09/18 03:30:26;;;;;;;2.55;2.35;;;15.70;99.90;15.70;100164.00;;;;4957952;28;110903;-66
2023/09/18 03:32:52;;;;;;;2.40;2.20;;;15.70;99.90;15.70;100160.00;;;;4974319;28;93277;-65
2023/09/18 03:35:19;;;;;;;3.40;2.50;;;15.70;99.90;15.80;100150.00;;;;4975247;28;93829;-66
2023/09/18 03:37:51;;;;;;;2.42;2.22;;;15.70;99.90;15.70;100148.00;;;;4977834;28;93529;-65
2023/09/18 03:40:18;;;;;;;3.15;2.60;;;15.70;99.90;15.70;100150.00;;;;4971990;28;93315;-65
2023/09/18 03:42:45;;;;;;;2.95;2.65;;;15.70;99.90;15.70;100145.00;;;;4979551;28;114199;-65
2023/09/18 03:45:11;;;;;;;3.20;2.90;;;15.60;99.90;15.70;100148.00;;;;4974874;28;93123;-65
2023/09/18 03:47:41;;;;;;;2.33;2.13;;;15.60;99.90;15.70;100139.00;;;;4962166;28;92800;-65
2023/09/18 03:50:11;;;;;;;3.15;2.75;;;15.70;99.90;15.70;100130.00;;;;4972462;28;94662;-66
2023/09/18 03:52:38;;;;;;;4.13;2.45;;;15.60;99.90;15.70;100126.00;;;;4977868;28;92976;-66
2023/09/18 03:55:05;;;;;;;3.30;2.47;;;15.60;99.90;15.70;100124.00;;;;4974463;28;92500;-66
2023/09/18 03:57:31;;;;;;;2.28;1.73;;;15.60;99.90;15.60;100127.00;;;;4977950;28;93169;-66
2023/09/18 03:59:56;;;;;;;5.88;3.20;;;15.60;99.90;15.60;100125.00;;;;4973842;28;122240;-65
2023/09/18 04:02:25;;;;;;;2.92;2.08;;;15.60;99.90;15.60;100115.00;;;;4973292;28;108516;-65
2023/09/18 04:04:53;;;;;;;2.88;2.58;;;15.60;99.90;15.60;100111.00;;;;4980809;28;93042;-65
2023/09/18 04:07:19;;;;;;;2.28;2.08;;;15.50;99.90;15.60;100114.00;;;;4962966;28;92925;-66
2023/09/18 04:09:45;;;;;;;2.92;2.65;;;15.50;99.90;15.60;100119.00;;;;4961163;28;94253;-65
2023/09/18 04:12:11;;;;;;;2.47;2.28;;;15.50;99.90;15.60;100123.00;;;;4975019;28;93118;-65
2023/09/18 04:14:37;;;;;;;3.40;2.50;;;15.50;99.90;15.50;100120.00;;;;4961747;28;93014;-65
2023/09/18 04:17:03;;;;;;;2.75;2.08;;;15.50;99.90;15.50;100122.00;;;;4975925;28;93565;-66
2023/09/18 04:19:29;;;;;;;1.60;1.50;;;15.50;99.90;15.50;100124.00;;;;4974046;28;116149;-65
2023/09/18 04:21:55;;;;;;;2.92;2.67;;;15.50;99.90;15.50;100120.00;;;;4977297;28;93775;-66
2023/09/18 04:24:21;;;;;;;6.00;3.05;;;15.40;99.90;15.40;100115.00;;;;4982726;27;94205;-65
2023/09/18 04:26:50;;;;;;;3.28;2.53;;;15.40;99.90;15.40;100112.00;;;;4991628;28;92646;-65
2023/09/18 04:29:16;;;;;;;2.60;2.00;;;15.40;99.90;15.40;100111.00;;;;4993233;28;94212;-65
2023/09/18 04:31:42;;;;;;;3.03;2.50;;;15.30;99.90;15.40;100123.00;;;;4992040;28;94739;-65
2023/09/18 04:34:08;;;;;;;3.92;2.80;;;15.30;99.90;15.40;100116.00;;;;4992496;28;113831;-66
2023/09/18 04:36:33;;;;;;;4.13;2.83;;;15.30;99.90;15.30;100109.00;;;;4997007;27;93137;-67
2023/09/18 04:38:59;;;;;;;2.90;2.53;;;15.30;99.90;15.30;100120.00;;;;4994082;27;115241;-65
2023/09/18 04:41:25;;;;;;;2.17;1.98;;;15.30;99.90;15.30;100111.00;;;;4973834;28;119880;-65
2023/09/18 04:43:51;;;;;;;3.50;3.10;;;15.30;99.90;15.30;100117.00;;;;4992439;27;105646;-66
2023/09/18 04:46:16;;;;;;;3.17;2.60;;;15.30;99.90;15.30;100113.00;;;;4994466;27;109288;-65
2023/09/18 04:48:42;;;;;;;2.40;2.03;;;15.20;99.90;15.30;100116.00;;;;4995847;27;117123;-65
2023/09/18 04:51:08;;;;;;;2.80;2.55;;;15.20;99.90;15.20;100104.00;;;;4993435;27;123103;-65
2023/09/18 04:53:33;;;;;;;3.20;2.53;;;15.20;99.90;15.20;100107.00;;;;4993344;27;92968;-66
2023/09/18 04:56:00;;;;;;;2.83;2.42;;;15.20;99.90;15.20;100107.00;;;;4990820;28;109543;-66
2023/09/18 04:58:32;;;;;;;2.60;2.15;;;15.20;99.90;15.20;100113.00;;;;4992014;27;92886;-65
2023/09/18 05:01:00;;;;;;;3.45;2.55;;;15.20;99.90;15.20;100108.00;;;;4979236;28;100507;-66
2023/09/18 05:03:29;;;;;;;2.95;2.28;;;15.20;99.90;15.20;100110.00;;;;4990259;27;92803;-66
2023/09/18 05:05:55;;;;;;;2.22;2.03;;;15.20;99.90;15.20;100108.00;;;;4995809;28;92052;-66
2023/09/18 05:08:21;;;;;;;2.85;2.65;;;15.20;99.90;15.30;100107.00;;;;5001049;27;120286;-66
2023/09/18 05:10:47;;;;;;;3.53;2.65;;;15.20;99.90;15.30;100101.00;;;;4997912;28;93674;-66
2023/09/18 05:13:13;;;;;;;3.45;2.90;;;15.20;99.90;15.30;100095.00;;;;5000695;28;94034;-66
2023/09/18 05:15:39;;;;;;;3.42;2.25;;;15.30;99.90;15.40;100091.00;;;;5000072;27;108877;-65
2023/09/18 05:18:05;;;;;;;5.88;2.58;;;15.30;99.90;15.50;100087.00;;;;4992192;28;123280;-65
2023/09/18 05:20:31;;;;;;;5.35;3.13;;;15.40;99.90;15.60;100091.00;;;;4989470;27;94642;-66
2023/09/18 05:22:59;;;;;;;3.70;2.88;;;15.40;99.90;15.70;100083.00;;;;4974008;28;92256;-66
2023/09/18 05:25:33;;;;;;;2.67;2.47;;;15.50;99.90;15.70;100077.00;;;;4997119;28;93077;-65
2023/09/18 05:28:00;;;;;;;4.38;2.70;;;15.60;99.90;15.80;100070.00;;;;4993104;27;93003;-65
2023/09/18 05:30:34;;;;;;;3.78;2.72;;;15.70;99.90;15.90;100082.00;;;;4996987;27;92939;-66
2023/09/18 05:33:04;;;;;;;4.55;3.13;;;15.80;99.90;16.00;100076.00;;;;4997055;28;92831;-65
2023/09/18 05:35:36;;;;;;;4.65;3.58;;;15.90;99.90;16.20;100069.00;;;;4993939;27;92888;-66
2023/09/18 05:38:03;;;;;;;7.88;3.83;;;16.00;99.90;16.30;100087.00;;;;4992265;28;94793;-66
2023/09/18 05:40:29;;;;;;;11.27;4.05;;;16.20;99.90;16.50;100067.00;;;;4990808;27;94075;-66
2023/09/18 05:42:56;;;;;;;8.02;4.95;;;16.30;99.90;16.60;100063.00;;;;4995001;28;92607;-66
2023/09/18 05:45:22;;;;;;;11.85;4.50;;;16.50;99.90;16.80;100065.00;;;;4990795;28;92691;-67
2023/09/18 05:47:49;;;;;;;11.52;4.25;;;16.60;99.90;17.00;100063.00;;;;4960393;28;93101;-66
2023/09/18 05:50:16;;;;;;;3.83;2.83;;;16.80;99.90;17.20;100057.00;;;;4973113;27;95704;-66
2023/09/18 05:52:47;;;;;;;5.18;3.42;;;17.00;99.90;17.40;100053.00;;;;4988637;27;93016;-66
2023/09/18 05:55:15;;;;;;;7.18;4.32;;;17.20;99.90;17.60;100058.00;;;;4993727;27;92158;-66
2023/09/18 05:57:40;;;;;;;14.98;3.20;;;17.40;99.90;17.80;100045.00;;;;4979668;28;93265;-66
2023/09/18 06:00:07;;;;;;;3.20;2.70;;;17.60;99.90;18.00;100050.00;;;;5000532;27;123036;-66
2023/09/18 06:02:33;;;;;;;2.60;2.40;;;17.80;99.90;18.10;100052.00;;;;4994263;27;93712;-67
2023/09/18 06:05:00;;;;;;;3.00;2.60;;;17.90;99.90;18.30;100042.00;;;;4992997;27;105896;-65
2023/09/18 06:07:29;;;;;;;2.47;1.92;;;18.10;99.90;18.50;100050.00;;;;4992995;27;94085;-65
2023/09/18 06:09:57;;;;;;;2.72;2.53;;;18.30;99.90;18.60;100045.00;;;;4995331;28;92899;-66
2023/09/18 06:12:24;;;;;;;3.22;2.92;;;18.40;99.90;18.80;100041.00;;;;4994394;28;93295;-67
2023/09/18 06:14:50;;;;;;;2.70;2.42;;;18.60;99.90;19.00;100038.00;;;;4994002;28;93540;-64
2023/09/18 06:17:16;;;;;;;2.42;2.22;;;18.80;99.90;19.10;100032.00;;;;4990908;28;123291;-65
2023/09/18 06:19:43;;;;;;;6.35;2.70;;;18.90;99.90;19.20;100037.00;;;;4993626;28;93304;-65
2023/09/18 06:22:09;;;;;;;2.20;2.00;;;19.00;99.90;19.20;100033.00;;;;4994369;27;92744;-66
2023/09/18 06:24:35;;;;;;;2.15;1.95;;;19.10;99.90;19.30;100025.00;;;;4989268;27;99677;-65
2023/09/18 06:27:01;;;;;;;4.53;2.40;;;19.10;99.90;19.30;100029.00;;;;4997030;27;112094;-67
2023/09/18 06:29:27;;;;;;;3.17;1.92;;;19.20;99.90;19.40;100018.00;;;;4996376;27;117666;-66
2023/09/18 06:31:52;;;;;;;3.72;2.65;;;19.20;99.90;19.40;100011.00;;;;4993211;27;100217;-67
2023/09/18 06:34:18;;;;;;;2.28;2.08;;;19.30;99.90;19.50;100006.00;;;;4995936;27;94141;-66
2023/09/18 06:36:44;;;;;;;2.47;2.25;;;19.30;99.90;19.60;100005.00;;;;4993381;27;117478;-66
2023/09/18 06:39:15;;;;;;;1.67;1.45;;;19.50;99.90;19.80;100015.00;;;;4981403;27;95827;-66
2023/09/18 06:41:41;;;;;;;2.22;2.03;;;19.50;99.90;20.00;100007.00;;;;4999581;27;111989;-66
2023/09/18 06:44:07;;;;;;;3.05;2.60;;;19.70;99.90;20.20;100005.00;;;;5000490;27;92247;-66
2023/09/18 06:46:32;;;;;;;2.45;1.90;;;19.90;99.90;20.50;100004.00;;;;4999155;27;94087;-65
2023/09/18 06:48:59;;;;;;;2.63;2.15;;;20.20;99.90;20.80;99995.00;;;;5000638;27;122323;-64
2023/09/18 06:51:27;;;;;;;1.85;1.73;;;20.50;99.90;21.10;99994.00;;;;4999855;27;94365;-65
2023/09/18 06:53:53;;;;;;;2.40;2.17;;;20.80;99.90;21.40;99990.00;;;;4998362;27;94513;-65
2023/09/18 06:56:19;;;;;;;3.50;2.60;;;21.10;99.90;21.70;99985.00;;;;4996624;27;94340;-65
2023/09/18 06:58:44;;;;;;;4.00;2.08;;;21.40;99.90;22.00;99987.00;;;;4978016;28;122110;-67
2023/09/18 07:01:11;;;;;;;2.22;2.03;;;21.60;99.90;22.30;99985.00;;;;4998497;27;93385;-66
2023/09/18 07:03:36;;;;;;;3.22;2.33;;;22.00;99.90;22.70;99986.00;;;;4998351;27;93144;-68
2023/09/18 07:06:04;;;;;;;2.42;2.22;;;22.40;99.90;23.10;99980.00;;;;5000107;27;92878;-66
2023/09/18 07:08:30;;;;;;;2.22;1.98;;;22.70;99.90;23.40;99981.00;;;;4998203;27;92823;-65
2023/09/18 07:10:56;;;;;;;2.13;1.80;;;23.10;99.90;23.70;99979.00;;;;4982937;28;93007;-65
2023/09/18 07:13:22;;;;;;;2.35;1.92;;;23.40;99.90;23.90;99978.00;;;;4997825;27;92867;-66
2023/09/18 07:15:48;;;;;;;4.93;2.03;;;23.60;99.90;24.10;99966.00;;;;4996175;27;94125;-66
2023/09/18 07:18:14;;;;;;;2.08;1.83;;;23.80;99.90;24.40;99965.00;;;;4994459;27;94679;-66
2023/09/18 07:20:46;;;;;;;2.30;1.83;;;24.10;99.90;24.70;99972.00;;;;4981241;28;92613;-66
2023/09/18 07:23:12;;;;;;;3.67;1.95;;;24.40;99.50;25.00;99964.00;;;;4998130;27;92851;-66
2023/09/18 07:25:38;;;;;;;2.92;1.95;;;24.70;98.60;25.30;99973.00;;;;4995112;27;122388;-67
2023/09/18 07:28:06;;;;;;;2.03;1.83;;;25.00;98.00;25.60;99970.00;;;;4997725;27;94253;-65
2023/09/18 07:30:32;;;;;;;1.83;1.73;;;25.30;96.70;25.90;99967.00;;;;4997603;28;110483;-65
2023/09/18 07:32:57;;;;;;;2.58;1.73;;;25.50;96.10;26.00;99959.00;;;;4995199;28;91961;-65
2023/09/18 07:35:27;;;;;;;1.80;1.65;;;25.70;94.40;26.10;99953.00;;;;4996547;27;93176;-66
2023/09/18 07:37:52;;;;;;;3.33;1.80;;;25.80;93.10;26.20;99958.00;;;;4999584;27;94435;-65
2023/09/18 07:40:18;;;;;;;1.98;1.80;;;25.90;92.40;26.30;99950.00;;;;4992098;27;93722;-66
2023/09/18 07:42:44;;;;;;;1.95;1.63;;;26.00;91.60;26.40;99953.00;;;;4992934;27;108947;-66
2023/09/18 07:45:11;;;;;;;3.55;1.98;;;26.10;90.20;26.40;99950.00;;;;4993485;28;96012;-64
2023/09/18 07:47:37;;;;;;;1.65;1.15;;;26.10;90.00;26.50;99943.00;;;;4993966;27;93748;-66
2023/09/18 07:50:03;;;;;;;3.00;1.45;;;26.20;89.70;26.60;99942.00;;;;4994090;27;92412;-66
2023/09/18 07:52:30;;;;;;;1.65;1.55;;;26.30;88.40;26.80;99946.00;;;;4994572;27;99205;-65
2023/09/18 07:54:55;;;;;;;2.08;1.70;;;26.40;86.70;26.90;99950.00;;;;4997733;27;93172;-66
2023/09/18 07:57:22;;;;;;;2.33;1.50;;;26.60;87.50;27.10;99943.00;;;;4993165;27;93828;-66
2023/09/18 07:59:49;;;;;;;1.77;1.65;;;26.60;84.70;27.30;99944.00;;;;4991496;27;92798;-67
2023/09/18 08:02:15;;;;;;;3.78;1.80;;;26.90;83.70;27.50;99948.00;;;;4991402;27;94048;-66
2023/09/18 08:04:42;;;;;;;2.30;1.58;;;27.20;83.60;27.70;99946.00;;;;4995081;28;94748;-66
2023/09/18 08:07:08;;;;;;;1.95;1.23;;;27.40;80.50;27.70;99940.00;;;;4989537;28;94381;-66
2023/09/18 08:09:36;;;;;;;1.85;1.65;;;27.40;80.50;27.90;99938.00;;;;4990743;27;109489;-66
2023/09/18 08:12:03;;;;;;;1.83;1.27;;;27.60;80.00;28.10;99939.00;;;;4994501;27;92939;-66
2023/09/18 08:14:29;;;;;;;1.98;1.27;;;27.70;79.70;28.30;99946.00;;;;4994352;27;94118;-66
2023/09/18 08:16:59;;;;;;;1.05;0.90;;;27.90;78.80;28.50;99946.00;;;;4995049;27;93911;-66
2023/09/18 08:19:26;;;;;;;3.15;1.73;;;28.20;75.30;28.60;99947.00;;;;4992349;27;93342;-67
2023/09/18 08:21:55;;;;;;;1.88;1.38;;;28.30;72.30;28.60;99944.00;;;;4991841;27;92349;-66
2023/09/18 08:24:22;;;;;;;2.10;1.50;;;28.30;70.30;28.50;99941.00;;;;4998106;27;93665;-67
2023/09/18 08:26:49;;;;;;;2.15;1.52;;;28.20;70.60;28.50;99940.00;;;;4998338;27;93781;-66
2023/09/18 08:29:15;;;;;;;1.90;1.23;;;28.20;70.00;28.50;99926.00;;;;4974121;28;95271;-67
2023/09/18 08:31:41;;;;;;;2.08;1.30;;;28.20;70.60;28.60;99931.00;;;;4997690;27;93154;-67
2023/09/18 08:34:07;;;;;;;2.13;1.50;;;28.30;69.20;28.60;99922.00;;;;4990352;27;110538;-66
2023/09/18 08:36:33;;;;;;;1.60;1.20;;;28.30;66.80;28.50;99931.00;;;;4975294;27;95158;-66
2023/09/18 08:38:59;;;;;;;2.08;1.20;;;28.10;66.60;28.50;99926.00;;;;4989878;27;92580;-67
2023/09/18 08:41:28;;;;;;;2.95;1.42;;;28.20;67.40;28.60;99936.00;;;;4993790;27;96440;-66
2023/09/18 08:44:03;;;;;;;1.40;1.17;;;28.30;65.50;28.40;99928.00;;;;4993678;27;103253;-65
2023/09/18 08:46:30;;;;;;;1.40;1.20;;;28.20;65.40;28.30;99934.00;;;;4997470;27;94427;-65
2023/09/18 08:48:57;;;;;;;2.63;1.50;;;28.10;66.20;28.30;99934.00;;;;4996434;28;92844;-65
2023/09/18 08:51:23;;;;;;;4.32;1.63;;;28.00;65.80;28.30;99933.00;;;;4989284;27;97695;-67
2023/09/18 08:53:50;;;;;;;1.45;1.35;;;28.00;65.90;28.40;99925.00;;;;4970873;28;123767;-65
2023/09/18 08:56:17;;;;;;;1.67;1.33;;;28.00;66.90;28.50;99933.00;;;;4970074;28;96362;-67
2023/09/18 08:58:44;;;;;;;2.13;1.27;;;28.20;66.60;28.70;99928.00;;;;4992331;27;110647;-67
2023/09/18 09:01:11;;;;;;;2.03;1.48;;;28.30;65.30;28.80;99934.00;;;;4989767;27;92992;-65
2023/09/18 09:03:45;;;;;;;1.95;1.35;;;28.50;64.50;29.00;99924.00;;;;4994777;27;114864;-65
2023/09/18 09:06:12;;;;;;;1.98;1.58;;;28.60;63.60;29.10;99932.00;;;;4996249;28;93101;-66
2023/09/18 09:08:38;;;;;;;1.20;1.17;;;28.70;63.50;29.30;99920.00;;;;4994687;28;110333;-67
2023/09/18 09:11:05;;;;;;;2.55;1.60;;;28.80;63.70;29.50;99907.00;;;;4990813;27;93593;-65
2023/09/18 09:13:31;;;;;;;1.77;1.25;;;29.10;62.80;29.70;99916.00;;;;4988527;27;124356;-68
2023/09/18 09:15:58;;;;;;;1.80;1.33;;;29.20;62.00;29.80;99902.00;;;;4972672;28;93816;-67
2023/09/18 09:18:27;;;;;;;3.05;1.45;;;29.30;60.30;29.80;99899.00;;;;4990432;27;94059;-67
2023/09/18 09:21:01;;;;;;;2.00;1.23;;;29.40;59.70;29.90;99894.00;;;;4995088;28;92721;-68
2023/09/18 09:23:51;;;;;;;1.63;1.50;;;29.50;59.40;30.00;99896.00;;;;4975491;28;93055;-68
2023/09/18 09:26:20;;;;;;;2.08;1.45;;;29.60;58.50;30.00;99909.00;;;;4976761;27;93164;-67
2023/09/18 09:28:46;;;;;;;2.60;1.52;;;29.60;58.20;30.00;99907.00;;;;4991834;28;92958;-68
2023/09/18 09:31:24;;;;;;;1.15;1.05;;;29.60;58.10;30.10;99910.00;;;;4995163;27;92907;-67
2023/09/18 09:33:55;;;;;;;1.30;1.13;;;29.80;56.90;30.10;99908.00;;;;4995473;28;94115;-67
2023/09/18 09:36:22;;;;;;;1.92;1.58;;;29.80;56.60;29.90;99896.00;;;;4994152;27;93802;-68
2023/09/18 09:38:47;;;;;;;2.85;1.65;;;29.60;56.70;29.80;99904.00;;;;4978416;28;92940;-68
2023/09/18 09:41:14;;;;;;;1.83;1.50;;;29.50;57.10;29.60;99898.00;;;;4978675;28;107580;-69
2023/09/18 09:43:43;;;;;;;1.70;1.38;;;29.30;57.30;29.60;99897.00;;;;4992631;27;94876;-67
2023/09/18 09:46:18;;;;;;;6.10;1.73;;;29.20;57.80;29.40;99898.00;;;;4992331;27;94367;-67
2023/09/18 09:49:06;;;;;;;1.90;1.35;;;29.10;57.70;29.30;99883.00;;;;4993517;28;92872;-67
2023/09/18 09:51:34;;;;;;;1.23;0.90;;;29.00;58.00;29.20;99892.00;;;;4997540;27;93068;-69
2023/09/18 09:54:00;;;;;;;1.73;1.42;;;28.90;58.30;29.10;99895.00;;;;4995370;27;93892;-66
2023/09/18 09:56:47;;;;;;;1.23;1.10;;;28.80;58.30;29.10;99902.00;;;;4993737;28;93508;-68
2023/09/18 09:59:15;;;;;;;1.55;1.33;;;28.80;58.50;29.20;99897.00;;;;4993627;27;93176;-67
2023/09/18 10:01:43;;;;;;;3.53;1.25;;;28.80;58.30;29.30;99897.00;;;;4993475;28;92261;-68
2023/09/18 10:04:18;;;;;;;1.33;1.13;;;28.90;58.20;29.40;99882.00;;;;4994284;28;94178;-68
2023/09/18 10:06:48;;;;;;;1.85;1.40;;;29.00;57.80;29.50;99881.00;;;;4997732;27;93665;-69
2023/09/18 10:09:15;;;;;;;1.65;1.02;;;29.10;58.00;29.80;99891.00;;;;4961840;28;101745;-69
2023/09/18 10:11:45;;;;;;;1.63;1.30;;;29.30;58.20;30.10;99889.00;;;;5004991;27;93021;-69
2023/09/18 10:14:19;;;;;;;1.45;1.27;;;29.50;57.10;30.40;99882.00;;;;4977506;28;93392;-69
2023/09/18 10:16:54;;;;;;;1.80;1.17;;;29.90;56.80;30.90;99880.00;;;;4975450;28;93275;-70
2023/09/18 10:19:28;;;;;;;1.95;1.38;;;30.20;56.20;31.30;99884.00;;;;4982358;27;93178;-69
2023/09/18 10:22:17;;;;;;;1.20;1.10;;;30.70;55.30;31.70;99886.00;;;;4980752;28;92748;-69
2023/09/18 10:24:47;;;;;;;1.75;1.20;;;31.00;54.00;31.80;99885.00;;;;4997121;28;93966;-69
2023/09/18 10:27:14;;;;;;;1.70;1.20;;;31.30;53.30;32.00;99882.00;;;;4998654;27;94306;-69
2023/09/18 10:29:41;;;;;;;1.45;1.00;;;31.40;53.00;32.00;99879.00;;;;4994484;27;92781;-68
2023/09/18 10:32:07;;;;;;;1.00;0.90;;;31.50;51.80;31.90;99886.00;;;;4997440;27;92767;-69
2023/09/18 10:34:35;;;;;;;1.98;1.30;;;31.40;51.30;31.60;99891.00;;;;4992197;27;123415;-68
2023/09/18 10:37:07;;;;;;;1.58;1.10;;;31.30;51.20;31.20;99881.00;;;;4999834;28;95174;-67
2023/09/18 10:39:37;;;;;;;2.45;1.45;;;30.90;51.60;30.90;99887.00;;;;4997047;27;94473;-68
2023/09/18 10:42:04;;;;;;;2.63;1.42;;;30.60;52.00;30.50;99889.00;;;;4995710;27;92694;-68
2023/09/18 10:44:34;;;;;;;2.38;1.58;;;30.40;52.50;30.40;99885.00;;;;4991639;27;94241;-68
2023/09/18 10:47:03;;;;;;;1.73;1.30;;;30.10;53.10;30.20;99876.00;;;;4997226;27;92769;-67
2023/09/18 10:49:29;;;;;;;1.75;1.00;;;30.00;53.50;30.20;99872.00;;;;4979805;28;92877;-67